Uniontown, KS (66779)

4:17 PM CDT on October 20, 2014 (GMT -0500)
Atkinson Municipal | Change Station
CLOSE
Current Station
Airport
Location: Pittsburg,
Elevation: 951 ft
Nearby Weather Stations

Elev 951 ft 37.45 °N, 94.73 °W | Updated 22 minutes ago

Clear
Clear
76 °F
Feels Like 76 °F
N
7
Wind Variable Wind from North

Today
High -- | Low -- °F
--% Chance of Precip.
Yesterday
High -- | Low -- °F
Precip. -- in
7:33 AM 6:35 PM
Waning Crescent, 9% visible
Pressure 30.01 in
Visibility 10.0 miles
Clouds Clear
Dew Point 55 °F
Humidity 48%
Rainfall 0.00 in
Snow Depth Not available.
UV 3 out of 12
Pollen 2.20 out of 12
Air Quality Not available.
Flu Activity No Activity
METAR KPTS 202055Z AUTO 36006KT 10SM CLR 25/13 A3001 RMK AO2 T02460128

More Conditions Fewer Conditions

Pressure 30.01 in
Visibility 10.0 miles
Clouds Clear
Dew Point 55 °F
Humidity 48%
Rainfall 0.00 in
Snow Depth Not available.
UV 3 out of 12
Pollen 2.20 out of 12
Air Quality Not available.
Flu Activity No Activity
METAR KPTS 202055Z AUTO 36006KT 10SM CLR 25/13 A3001 RMK AO2 T02460128

More Conditions Fewer Conditions

10-Day Weather Forecast

Almanac

Astronomy

Oct. 20, 2014 Rise Set
Actual Time 7:33 AM CDT 6:35 PM CDT
Civil Twilight 7:06 AM CDT 7:02 PM CDT
Nautical Twilight 6:35 AM CDT 7:32 PM CDT
Astronomical Twilight 6:05 AM CDT 8:03 PM CDT
Moon 4:25 AM CDT 4:56 PM CDT
Length of Visible Light 11h 55m
Length of Day
11h 02m
Waning Crescent, 9% of the Moon is Illuminated
Today
Waning Crescent
Oct 23
New
Oct 30
First Quarter
Nov 6
Full
Nov 14
Last Quarter

Today's Extremes

State Highs State Lows

Community

WunderPhotos

Upload Photos

1,763,510 photos uploaded!

WunderBlogs® & News

Nearby

Snow Depth

Station Depth Elevation
No new snow has been reported.

Earthquake Activity

City Distance Mag. Time & Date
Cushing, Oklahoma 160 miles 2.8 11:41 AM CDT
2014-10-20
Cushing, Oklahoma 160 miles 2.5 10:20 AM CDT
2014-10-20
Pawnee, Oklahoma 148 miles 3.0 10:04 PM CDT
2014-10-18
Pawnee, Oklahoma 148 miles 3.0 8:49 PM CDT
2014-10-18
Minimum magnitude displayed is 2.5.

Coastal Water Temperatures

Place Temperature
No Stations Reporting

Nearby Weather Stations